Del Mar, California
Current Conditions -  °F | °C
As of 3:55 PM on Monday 20 Oct 2014 (Local Time) from KNKX Reporting Station
Scattered Clouds Scattered Clouds  
Wind Chill: 23°   Ceiling: Unl
Heat Index: 23°   Visibility: 10mi
Dew Point: 15°   Wind: 9mph
Humidity: 61%   Direction: 270°W
Pressure: 29.88"   Gusts: NA
Location:  32.96°N, 117.27°W
Report Text: KNKX 202255Z 27008KT 10SM SCT022 23/15 A2988 RMK AO2 SLP112 T02280150 $
Loading
Personal Weather Stations






























Interactive Weather Map
Tropical Storm Tracking
New forecast layout! Learn more

10-Day Weather Forecast

Advertisements
Track Severe Weather on mobile